Time;durP1;ratioP1;P1;durP2;ratioP2;P2;SDS_P1;SDS_P2;PMS_P1;PMS_P2;Temp;Humidity;BMP_temperature;BMP_pressure;BME280_temperature;BME280_humidity;BME280_pressure;Samples;Min_cycle;Max_cycle;Signal;HPM_P1;HPM_P2
2022/08/25 00:02:49;;;;;;;3.87;3.47;;;27.70;55.40;;;;;;5076877;28;20178;-88
2022/08/25 00:05:20;;;;;;;6.27;4.23;;;27.70;55.30;;;;;;5054557;28;20662;-88
2022/08/25 00:07:46;;;;;;;6.03;4.10;;;27.70;55.20;;;;;;5032417;28;20396;-89
2022/08/25 00:10:12;;;;;;;5.53;3.97;;;27.70;55.10;;;;;;5078014;28;20182;-88
2022/08/25 00:12:38;;;;;;;4.40;4.00;;;27.70;55.10;;;;;;5067131;28;20198;-88
2022/08/25 00:15:05;;;;;;;6.13;3.80;;;27.70;55.10;;;;;;5064485;28;20221;-88
2022/08/25 00:17:30;;;;;;;6.03;4.17;;;27.60;55.10;;;;;;5081314;28;20231;-88
2022/08/25 00:19:59;;;;;;;4.10;3.70;;;27.70;55.10;;;;;;5088623;28;20453;-88
2022/08/25 00:22:41;;;;;;;4.13;3.70;;;27.70;55.00;;;;;;5107063;27;20430;-88
2022/08/25 00:25:08;;;;;;;5.77;3.60;;;27.70;54.90;;;;;;5075769;28;20304;-88
2022/08/25 00:27:46;;;;;;;6.13;3.70;;;27.70;55.00;;;;;;5088924;28;20523;-88
2022/08/25 00:30:15;;;;;;;4.17;3.77;;;27.70;55.00;;;;;;5077193;28;20543;-88
2022/08/25 00:32:41;;;;;;;5.13;3.97;;;27.70;55.00;;;;;;5077901;28;20197;-88
2022/08/25 00:35:07;;;;;;;4.67;4.10;;;27.70;55.00;;;;;;5094463;28;20318;-88
2022/08/25 00:37:37;;;;;;;3.80;3.40;;;27.60;55.00;;;;;;5087138;27;20180;-88
2022/08/25 00:40:04;;;;;;;5.77;3.50;;;27.60;55.00;;;;;;5097296;28;20166;-88
2022/08/25 00:42:30;;;;;;;4.07;3.50;;;27.60;55.00;;;;;;5083785;28;20735;-88
2022/08/25 00:44:57;;;;;;;4.13;3.73;;;27.60;55.10;;;;;;5128985;27;20174;-88
2022/08/25 00:47:25;;;;;;;4.73;3.47;;;27.60;55.00;;;;;;5078135;28;20182;-88
2022/08/25 00:49:56;;;;;;;4.40;3.50;;;27.60;55.00;;;;;;5079686;28;20243;-88
2022/08/25 00:52:48;;;;;;;6.20;3.60;;;27.60;55.00;;;;;;5085010;28;20296;-88
2022/08/25 00:55:52;;;;;;;5.27;3.70;;;27.60;54.90;;;;;;5074833;28;20448;-88
2022/08/25 00:58:24;;;;;;;5.47;3.50;;;27.60;54.90;;;;;;5043749;28;20181;-88
2022/08/25 01:00:54;;;;;;;4.37;3.53;;;27.50;54.80;;;;;;5084409;28;20298;-88
2022/08/25 01:03:57;;;;;;;4.20;3.60;;;27.60;54.80;;;;;;5059549;28;20174;-88
2022/08/25 01:06:38;;;;;;;4.07;3.40;;;27.60;54.70;;;;;;5085100;28;20264;-88
2022/08/25 01:09:12;;;;;;;4.77;3.53;;;27.50;54.60;;;;;;5082385;28;20234;-91
2022/08/25 01:11:39;;;;;;;4.10;3.40;;;27.50;54.50;;;;;;5070615;28;20262;-91
2022/08/25 01:14:05;;;;;;;3.63;3.33;;;27.50;54.30;;;;;;5071789;28;20614;-91
2022/08/25 01:16:36;;;;;;;4.70;3.40;;;27.50;54.30;;;;;;5067704;28;20173;-91
2022/08/25 01:19:05;;;;;;;4.07;3.60;;;27.50;54.30;;;;;;5072755;28;20451;-91
2022/08/25 01:21:38;;;;;;;3.60;3.30;;;27.50;54.30;;;;;;5085597;28;20278;-92
2022/08/25 01:24:04;;;;;;;4.03;3.37;;;27.50;54.30;;;;;;5087657;28;20274;-92
2022/08/25 01:26:33;;;;;;;3.57;3.20;;;27.50;54.20;;;;;;5090374;28;20562;-91
2022/08/25 01:29:24;;;;;;;8.27;3.77;;;27.40;54.20;;;;;;5063297;28;20628;-91
2022/08/25 01:32:00;;;;;;;4.73;3.53;;;27.40;54.30;;;;;;5037777;28;20423;-91
2022/08/25 01:34:50;;;;;;;4.90;3.93;;;27.40;54.30;;;;;;5074708;28;20709;-91
2022/08/25 01:37:21;;;;;;;5.70;3.80;;;27.40;54.40;;;;;;5054777;28;20194;-91
2022/08/25 01:39:47;;;;;;;4.30;3.30;;;27.40;54.40;;;;;;5083511;28;20171;-91
2022/08/25 01:42:19;;;;;;;4.60;3.47;;;27.40;54.40;;;;;;5099936;28;20166;-92
2022/08/25 01:44:49;;;;;;;4.10;3.70;;;27.40;54.40;;;;;;5061463;28;20421;-88
2022/08/25 01:47:20;;;;;;;6.87;4.07;;;27.30;54.40;;;;;;5086376;28;20178;-88
2022/08/25 01:49:46;;;;;;;4.83;3.50;;;27.30;54.30;;;;;;5077976;28;20174;-88
2022/08/25 01:52:44;;;;;;;6.97;4.27;;;27.30;54.30;;;;;;5081290;27;20206;-88
2022/08/25 01:55:11;;;;;;;5.17;3.97;;;27.20;54.20;;;;;;5064099;28;20188;-88
2022/08/25 01:57:46;;;;;;;4.10;3.70;;;27.20;54.40;;;;;;5071299;28;20503;-88
2022/08/25 02:00:14;;;;;;;5.20;3.70;;;27.20;54.40;;;;;;5063829;28;20449;-88
2022/08/25 02:02:41;;;;;;;7.23;3.93;;;27.20;54.30;;;;;;5093519;28;20327;-88
2022/08/25 02:05:09;;;;;;;4.07;3.67;;;27.20;54.10;;;;;;5079598;28;20281;-88
2022/08/25 02:07:36;;;;;;;4.33;3.70;;;27.10;54.20;;;;;;5081441;28;20665;-88
2022/08/25 02:10:21;;;;;;;4.93;3.77;;;27.20;54.30;;;;;;5082881;28;20304;-88
2022/08/25 02:12:46;;;;;;;4.60;3.70;;;27.20;54.30;;;;;;5077671;28;20385;-88
2022/08/25 02:15:14;;;;;;;4.50;3.80;;;27.10;54.20;;;;;;5108908;27;20170;-91
2022/08/25 02:17:39;;;;;;;5.77;3.80;;;27.10;54.20;;;;;;5078096;28;20235;-91
2022/08/25 02:20:08;;;;;;;5.30;3.80;;;27.10;54.20;;;;;;5091436;27;20178;-91
2022/08/25 02:22:38;;;;;;;4.30;3.90;;;27.10;54.20;;;;;;5050884;28;20351;-91
2022/08/25 02:25:05;;;;;;;5.80;4.00;;;27.10;54.20;;;;;;5078939;28;20230;-91
2022/08/25 02:27:31;;;;;;;4.60;4.20;;;27.10;54.20;;;;;;5086293;28;20257;-91
2022/08/25 02:29:58;;;;;;;4.40;4.00;;;27.10;54.20;;;;;;5097683;27;20492;-91
2022/08/25 02:32:24;;;;;;;4.63;3.50;;;27.10;54.30;;;;;;5069349;28;20209;-91
2022/08/25 02:34:57;;;;;;;7.27;4.30;;;27.00;54.20;;;;;;5116172;27;20190;-91
2022/08/25 02:37:23;;;;;;;4.50;3.80;;;27.00;54.30;;;;;;5096552;28;20177;-91
2022/08/25 02:40:07;;;;;;;4.30;3.43;;;27.00;54.30;;;;;;5120310;27;20166;-91
2022/08/25 02:43:17;;;;;;;5.00;4.00;;;27.00;54.30;;;;;;5087148;28;20435;-91
2022/08/25 02:46:04;;;;;;;4.73;3.87;;;27.00;54.30;;;;;;5006459;28;20759;-91
2022/08/25 02:51:28;;;;;;;5.40;4.50;;;27.00;54.50;;;;;;5064198;28;20202;-91
2022/08/25 02:53:56;;;;;;;8.33;4.10;;;26.90;54.40;;;;;;5081987;28;20200;-90
2022/08/25 02:57:14;;;;;;;5.23;4.00;;;26.90;54.60;;;;;;5084809;28;20162;-91
2022/08/25 02:59:41;;;;;;;6.43;3.80;;;26.90;54.70;;;;;;5078480;28;20412;-91
2022/08/25 03:02:08;;;;;;;5.37;4.10;;;26.80;54.60;;;;;;5072396;28;20185;-91
2022/08/25 03:04:34;;;;;;;4.73;3.80;;;26.80;54.60;;;;;;5107754;27;20326;-91
2022/08/25 03:07:02;;;;;;;5.53;4.10;;;26.80;54.60;;;;;;5060244;28;20177;-91
2022/08/25 03:09:28;;;;;;;4.17;3.63;;;26.80;54.60;;;;;;5078684;28;20544;-90
2022/08/25 03:11:57;;;;;;;5.17;4.37;;;26.80;54.60;;;;;;5106690;27;20205;-91
2022/08/25 03:14:27;;;;;;;3.90;3.60;;;26.80;54.50;;;;;;5116255;27;20177;-91
2022/08/25 03:17:40;;;;;;;4.77;4.17;;;26.80;54.60;;;;;;5084073;28;20202;-90
2022/08/25 03:21:02;;;;;;;4.90;3.93;;;26.80;54.50;;;;;;5082876;28;20519;-90
2022/08/25 03:23:28;;;;;;;5.00;3.87;;;26.70;54.60;;;;;;5079658;28;20181;-91
2022/08/25 03:29:09;;;;;;;4.63;3.70;;;26.60;54.60;;;;;;5097605;28;20189;-91
2022/08/25 03:35:10;;;;;;;4.00;3.40;;;26.60;54.60;;;;;;5104781;28;20185;-91
2022/08/25 03:37:37;;;;;;;4.60;3.60;;;26.60;54.60;;;;;;5089962;28;20174;-91
2022/08/25 03:40:10;;;;;;;5.27;3.70;;;26.60;54.50;;;;;;5085848;28;20166;-92
2022/08/25 03:43:16;;;;;;;6.07;3.83;;;26.60;54.60;;;;;;5087578;28;20195;-91
2022/08/25 03:47:09;;;;;;;5.83;3.67;;;26.60;54.60;;;;;;5105024;28;20196;-92
2022/08/25 03:49:35;;;;;;;4.30;3.90;;;26.60;54.80;;;;;;5060320;28;20288;-92
2022/08/25 03:52:01;;;;;;;5.27;3.90;;;26.50;54.80;;;;;;5083997;28;20297;-90
2022/08/25 03:57:59;;;;;;;6.47;4.03;;;26.40;55.00;;;;;;5100387;28;20511;-91
2022/08/25 04:00:40;;;;;;;3.97;3.67;;;26.40;55.10;;;;;;5091278;28;20470;-91
2022/08/25 04:03:06;;;;;;;5.37;3.90;;;26.40;55.00;;;;;;5084603;28;20177;-92
2022/08/25 04:05:32;;;;;;;5.50;3.63;;;26.40;55.10;;;;;;5120168;27;20174;-91
2022/08/25 04:08:01;;;;;;;5.17;3.60;;;26.40;55.10;;;;;;5122402;27;20175;-91
2022/08/25 04:11:05;;;;;;;5.57;3.80;;;26.40;55.10;;;;;;5083073;28;20170;-91
2022/08/25 04:13:47;;;;;;;4.83;3.70;;;26.40;55.10;;;;;;5052292;28;20189;-91
2022/08/25 04:16:51;;;;;;;6.07;3.87;;;26.40;55.20;;;;;;5065341;28;20175;-92
2022/08/25 04:19:38;;;;;;;5.73;3.77;;;26.40;55.30;;;;;;5091689;28;20182;-92
2022/08/25 04:28:59;;;;;;;4.27;3.77;;;26.30;55.40;;;;;;5099436;28;20173;-92
2022/08/25 04:31:26;;;;;;;5.37;3.90;;;26.30;55.40;;;;;;5091099;28;20307;-92
2022/08/25 04:33:52;;;;;;;4.20;3.73;;;26.30;55.40;;;;;;5087167;28;20166;-92
2022/08/25 04:36:27;;;;;;;6.20;3.50;;;26.20;55.40;;;;;;5123303;27;20194;-92
2022/08/25 04:38:53;;;;;;;4.37;3.97;;;26.30;55.60;;;;;;5125451;27;20178;-91
2022/08/25 04:41:22;;;;;;;5.10;3.90;;;26.20;55.60;;;;;;5090324;28;20167;-92
2022/08/25 04:47:09;;;;;;;5.40;4.63;;;26.20;55.60;;;;;;5106490;28;20192;-91
2022/08/25 04:49:39;;;;;;;8.30;4.73;;;26.20;55.60;;;;;;5124516;27;20575;-92
2022/08/25 04:52:05;;;;;;;8.10;5.40;;;26.20;55.70;;;;;;5090955;28;20221;-91
2022/08/25 04:58:02;;;;;;;6.00;5.10;;;26.20;55.90;;;;;;5103107;28;20698;-90
2022/08/25 05:01:27;;;;;;;8.53;5.20;;;26.10;56.10;;;;;;5120510;27;20162;-89
2022/08/25 05:04:03;;;;;;;7.70;4.60;;;26.10;56.00;;;;;;5086565;28;20188;-91
2022/08/25 05:06:29;;;;;;;7.20;4.13;;;26.10;55.90;;;;;;5087965;28;20178;-91
2022/08/25 05:08:56;;;;;;;6.93;4.73;;;26.10;56.00;;;;;;5088102;28;20231;-91
2022/08/25 05:11:46;;;;;;;5.80;4.47;;;26.10;56.00;;;;;;5086659;28;20171;-91
2022/08/25 05:22:04;;;;;;;9.73;5.80;;;26.30;56.00;;;;;;5021805;28;20226;-91
2022/08/25 05:24:30;;;;;;;6.20;4.43;;;26.30;56.20;;;;;;5041036;28;20181;-91
2022/08/25 05:27:08;;;;;;;8.37;5.00;;;26.40;55.90;;;;;;5007324;28;20173;-91
2022/08/25 05:30:01;;;;;;;6.03;4.90;;;26.40;55.80;;;;;;5006567;28;20181;-91
2022/08/25 05:32:27;;;;;;;9.27;4.80;;;26.50;55.70;;;;;;5003828;28;20208;-90
2022/08/25 05:34:53;;;;;;;5.47;4.70;;;26.60;55.60;;;;;;5035319;28;20205;-91
2022/08/25 05:37:19;;;;;;;7.60;4.83;;;26.60;55.90;;;;;;5085660;28;20640;-91
2022/08/25 05:39:45;;;;;;;6.27;4.37;;;26.70;56.30;;;;;;5122909;27;20281;-91
2022/08/25 05:42:10;;;;;;;7.23;4.50;;;26.80;55.70;;;;;;5088501;28;20287;-90
2022/08/25 05:44:37;;;;;;;9.33;4.97;;;27.00;55.00;;;;;;5087691;28;20174;-91
2022/08/25 06:00:26;;;;;;;6.67;4.17;;;27.80;52.60;;;;;;5103858;28;20211;-90
2022/08/25 06:02:51;;;;;;;5.87;4.30;;;28.00;52.30;;;;;;5084958;28;20178;-91
2022/08/25 06:05:22;;;;;;;6.73;4.20;;;28.10;52.00;;;;;;5104092;28;20174;-91
2022/08/25 06:07:51;;;;;;;6.77;4.30;;;28.30;51.90;;;;;;5089784;28;20221;-89
2022/08/25 06:10:38;;;;;;;6.60;4.70;;;28.50;51.70;;;;;;5085145;28;20174;-92
2022/08/25 06:13:04;;;;;;;6.40;4.37;;;28.70;51.20;;;;;;5085192;28;20198;-92
2022/08/25 06:15:30;;;;;;;5.73;4.27;;;28.90;50.80;;;;;;5120840;27;20166;-92
2022/08/25 06:17:57;;;;;;;5.53;3.97;;;29.10;50.60;;;;;;5085102;28;20342;-92
2022/08/25 06:20:27;;;;;;;5.17;3.77;;;29.30;50.30;;;;;;5123900;27;20528;-92
2022/08/25 06:26:15;;;;;;;5.47;4.00;;;29.70;49.80;;;;;;5106265;28;20361;-92
2022/08/25 06:28:41;;;;;;;4.97;3.93;;;30.20;49.40;;;;;;5092421;28;20421;-91
2022/08/25 06:31:08;;;;;;;5.17;4.20;;;30.60;48.90;;;;;;5088250;28;20170;-92
2022/08/25 06:37:37;;;;;;;4.63;4.18;;;31.80;47.70;;;;;;5106987;28;20427;-91
2022/08/25 06:44:05;;;;;;;5.47;4.20;;;32.90;46.20;;;;;;5104165;28;20312;-90
2022/08/25 06:46:31;;;;;;;5.20;4.15;;;33.30;45.80;;;;;;5125341;27;20243;-91
2022/08/25 06:49:41;;;;;;;6.05;4.10;;;33.60;45.50;;;;;;5107314;28;20158;-90
2022/08/25 06:52:29;;;;;;;4.63;3.75;;;33.80;45.20;;;;;;5065153;28;20249;-91
2022/08/25 06:54:55;;;;;;;5.25;4.00;;;34.20;45.00;;;;;;5090908;28;20235;-91
2022/08/25 06:57:21;;;;;;;4.25;3.67;;;34.40;44.60;;;;;;5124670;27;20166;-91
2022/08/25 06:59:48;;;;;;;6.30;3.97;;;34.80;44.70;;;;;;5125660;27;20571;-91
2022/08/25 07:02:13;;;;;;;6.22;3.95;;;35.00;44.00;;;;;;5089070;28;20288;-90
2022/08/25 07:04:57;;;;;;;5.32;3.95;;;35.20;43.80;;;;;;5109370;27;20170;-91
2022/08/25 07:07:23;;;;;;;6.93;3.80;;;35.40;43.70;;;;;;5088274;28;20196;-91
2022/08/25 07:09:54;;;;;;;5.53;3.60;;;35.60;43.50;;;;;;5088661;28;20584;-90
2022/08/25 07:12:20;;;;;;;4.82;4.18;;;35.80;43.20;;;;;;5121939;27;20442;-90
2022/08/25 07:14:46;;;;;;;4.80;3.90;;;36.00;43.00;;;;;;5123042;27;20167;-91
2022/08/25 07:17:12;;;;;;;6.28;4.43;;;36.30;42.80;;;;;;5089939;28;20201;-89
2022/08/25 07:23:47;;;;;;;5.68;4.35;;;36.60;42.30;;;;;;5020660;28;20585;-88
2022/08/25 07:26:16;;;;;;;4.97;3.78;;;36.90;42.10;;;;;;5004934;28;20180;-89
2022/08/25 07:35:38;;;;;;;4.82;4.32;;;37.60;41.60;;;;;;5020337;28;20227;-89
2022/08/25 07:41:10;;;;;;;6.93;4.45;;;37.90;41.30;;;;;;5107247;28;20177;-89
2022/08/25 07:43:36;;;;;;;5.22;4.10;;;38.10;41.20;;;;;;5090900;28;20436;-89
2022/08/25 07:59:58;;;;;;;5.45;4.40;;;39.10;40.40;;;;;;5006586;28;20176;-89
2022/08/25 08:02:24;;;;;;;4.65;4.22;;;39.30;40.30;;;;;;5026737;28;20364;-89
2022/08/25 08:04:52;;;;;;;4.93;4.05;;;39.40;40.30;;;;;;5029289;28;20196;-89
2022/08/25 08:07:27;;;;;;;5.55;4.30;;;39.50;40.20;;;;;;5025033;28;20184;-89
2022/08/25 08:09:54;;;;;;;5.00;4.25;;;39.50;40.10;;;;;;5044178;28;20179;-89
2022/08/25 08:12:20;;;;;;;6.05;4.70;;;39.80;40.10;;;;;;5084210;28;20221;-90
2022/08/25 08:15:02;;;;;;;4.70;4.30;;;39.90;39.90;;;;;;5087504;28;20171;-89
2022/08/25 08:17:30;;;;;;;4.75;4.35;;;39.80;39.90;;;;;;5105339;28;20235;-89
2022/08/25 08:19:57;;;;;;;5.00;4.28;;;40.00;39.90;;;;;;5121818;27;20268;-89
2022/08/25 08:22:23;;;;;;;5.50;4.50;;;40.20;39.80;;;;;;5084926;28;20256;-89
2022/08/25 08:24:48;;;;;;;5.85;4.50;;;40.20;39.70;;;;;;5086285;28;20182;-89
2022/08/25 08:27:14;;;;;;;4.97;4.45;;;40.30;39.80;;;;;;5119397;27;20214;-89
2022/08/25 08:29:41;;;;;;;6.47;4.65;;;40.50;39.70;;;;;;5105092;28;20166;-89
2022/08/25 08:32:09;;;;;;;5.18;4.55;;;40.50;39.80;;;;;;5087960;28;20293;-89
2022/08/25 08:34:36;;;;;;;6.00;4.57;;;40.60;39.60;;;;;;5088087;28;20235;-89
2022/08/25 08:37:02;;;;;;;5.90;4.80;;;40.80;39.50;;;;;;5105160;28;20205;-90
2022/08/25 08:39:29;;;;;;;5.68;4.72;;;40.90;39.50;;;;;;5121020;27;20730;-89
2022/08/25 08:42:16;;;;;;;5.00;4.60;;;40.90;39.50;;;;;;5085596;28;20258;-89
2022/08/25 08:51:34;;;;;;;5.10;4.60;;;41.20;39.40;;;;;;5106730;28;20227;-89
2022/08/25 08:54:17;;;;;;;5.32;4.80;;;41.40;39.30;;;;;;5091022;28;20385;-89
2022/08/25 08:57:22;;;;;;;5.10;4.70;;;41.50;39.30;;;;;;5109261;28;20147;-92
2022/08/25 08:59:58;;;;;;;6.25;5.53;;;41.50;39.30;;;;;;5086170;28;20521;-92
2022/08/25 09:05:51;;;;;;;6.35;5.05;;;41.50;39.50;;;;;;5099956;28;20323;-92
2022/08/25 09:08:17;;;;;;;5.22;4.75;;;41.70;39.30;;;;;;5085038;28;20174;-92
2022/08/25 09:11:00;;;;;;;5.50;5.07;;;41.70;39.30;;;;;;5066610;28;20217;-92
2022/08/25 09:24:09;;;;;;;5.28;4.88;;;41.80;39.10;;;;;;5082522;28;20175;-89
2022/08/25 09:30:32;;;;;;;5.75;4.97;;;41.80;39.20;;;;;;5086199;28;20509;-87
2022/08/25 09:33:03;;;;;;;6.15;5.07;;;41.80;39.40;;;;;;5068267;28;20614;-87
2022/08/25 09:35:35;;;;;;;5.63;5.03;;;41.90;39.50;;;;;;5071593;28;20235;-87
2022/08/25 09:38:04;;;;;;;5.57;5.07;;;41.90;39.30;;;;;;5071658;28;20166;-87
2022/08/25 09:40:32;;;;;;;7.13;5.10;;;41.90;39.30;;;;;;5072066;28;20641;-87
2022/08/25 09:44:21;;;;;;;6.68;5.25;;;41.80;39.30;;;;;;5086114;28;20642;-87
2022/08/25 09:46:25;;;;;;;5.93;5.30;;;41.80;39.30;;;;;;5070262;28;20212;-87
2022/08/25 09:48:56;;;;;;;5.70;5.10;;;41.80;39.30;;;;;;5064540;28;20182;-87
2022/08/25 09:51:34;;;;;;;5.05;4.70;;;41.60;39.40;;;;;;5069083;28;20174;-88
2022/08/25 09:54:12;;;;;;;8.52;5.20;;;41.30;39.60;;;;;;5069493;28;20178;-87
2022/08/25 09:57:07;;;;;;;6.18;5.00;;;41.20;39.70;;;;;;5070644;28;20167;-86
2022/08/25 09:59:35;;;;;;;5.55;5.00;;;40.60;39.80;;;;;;5071947;28;20545;-87
2022/08/25 10:02:03;;;;;;;5.25;4.75;;;40.10;40.00;;;;;;5088901;28;20184;-89
2022/08/25 10:04:31;;;;;;;5.60;5.20;;;39.30;40.50;;;;;;5068328;28;20566;-89
2022/08/25 10:13:47;;;;;;;5.13;4.70;;;37.00;42.10;;;;;;5074185;28;20301;-88
2022/08/25 10:16:27;;;;;;;7.18;5.20;;;36.60;42.70;;;;;;5069703;28;20462;-89
2022/08/25 10:22:25;;;;;;;5.13;4.72;;;35.70;43.50;;;;;;5088914;28;20173;-89
2022/08/25 10:25:00;;;;;;;7.28;4.60;;;35.60;43.60;;;;;;5066631;28;20475;-89
2022/08/25 10:27:45;;;;;;;4.88;4.47;;;35.30;43.80;;;;;;5083886;28;20169;-90
2022/08/25 10:30:32;;;;;;;5.00;4.50;;;35.20;44.00;;;;;;5082910;28;20170;-89
2022/08/25 10:36:49;;;;;;;4.97;4.47;;;35.00;44.20;;;;;;5082691;28;20731;-86
2022/08/25 10:42:59;;;;;;;5.47;4.97;;;34.60;43.10;;;;;;5086948;28;20595;-86
2022/08/25 10:45:42;;;;;;;4.68;4.18;;;34.50;44.40;;;;;;5064932;28;20174;-86
2022/08/25 10:55:32;;;;;;;4.40;4.00;;;34.30;44.50;;;;;;5081624;28;20186;-89
2022/08/25 10:58:23;;;;;;;5.32;4.50;;;34.20;44.40;;;;;;5063415;28;20298;-89
2022/08/25 11:04:31;;;;;;;5.32;3.55;;;34.10;44.00;;;;;;5087214;28;20170;-90
2022/08/25 11:07:27;;;;;;;4.25;3.85;;;34.10;44.00;;;;;;5071838;28;20548;-89
2022/08/25 11:09:58;;;;;;;4.50;4.10;;;34.00;44.10;;;;;;5069458;28;20541;-91
2022/08/25 11:12:39;;;;;;;4.18;3.80;;;34.00;44.40;;;;;;5070251;28;20443;-91
2022/08/25 11:15:49;;;;;;;3.90;3.60;;;33.90;44.30;;;;;;5064511;28;20417;-91
2022/08/25 11:18:16;;;;;;;5.60;4.13;;;33.80;44.40;;;;;;5063800;28;20248;-92
2022/08/25 11:28:31;;;;;;;4.57;3.92;;;33.80;43.70;;;;;;5071167;28;20224;-92
2022/08/25 11:30:59;;;;;;;5.25;4.18;;;33.80;42.80;;;;;;4959089;28;20230;-92
2022/08/25 11:33:28;;;;;;;4.35;3.95;;;33.80;41.90;;;;;;4959081;28;20209;-92
2022/08/25 11:36:01;;;;;;;4.43;3.95;;;33.80;42.70;;;;;;5011334;28;20237;-92
2022/08/25 11:38:46;;;;;;;5.03;3.88;;;33.80;43.50;;;;;;5061552;28;20171;-92
2022/08/25 11:41:31;;;;;;;6.05;3.90;;;33.70;43.90;;;;;;5067011;28;20437;-91
2022/08/25 11:44:12;;;;;;;4.25;3.83;;;33.60;44.00;;;;;;5067725;28;20452;-91
2022/08/25 11:47:10;;;;;;;4.65;3.90;;;33.60;44.20;;;;;;5059510;28;20163;-91
2022/08/25 11:49:57;;;;;;;4.43;4.03;;;33.60;44.30;;;;;;5032058;28;20186;-90
2022/08/25 11:52:47;;;;;;;4.28;3.83;;;33.50;44.50;;;;;;5064428;28;20210;-91
2022/08/25 11:55:49;;;;;;;5.22;3.30;;;33.40;44.70;;;;;;5061967;28;20171;-91
2022/08/25 11:58:20;;;;;;;3.92;3.40;;;33.30;44.80;;;;;;5068103;28;20247;-91
2022/08/25 12:00:46;;;;;;;4.47;3.72;;;33.20;45.00;;;;;;5068921;28;20175;-91
2022/08/25 12:03:30;;;;;;;5.63;3.78;;;33.20;45.20;;;;;;5060702;28;20285;-91
2022/08/25 12:06:18;;;;;;;5.47;4.20;;;33.20;45.20;;;;;;5057125;28;20191;-91
2022/08/25 12:12:42;;;;;;;4.40;4.00;;;33.10;44.50;;;;;;5074997;28;20642;-92
2022/08/25 12:15:32;;;;;;;4.25;3.85;;;33.10;44.90;;;;;;5057273;28;20559;-91
2022/08/25 12:18:07;;;;;;;4.32;3.70;;;33.00;45.10;;;;;;5067168;28;20202;-91
2022/08/25 12:24:25;;;;;;;6.13;4.05;;;32.90;45.20;;;;;;5073017;28;20463;-91
2022/08/25 12:26:56;;;;;;;4.88;3.90;;;32.80;45.50;;;;;;5063071;28;20456;-91
2022/08/25 12:29:47;;;;;;;5.88;4.05;;;32.70;45.70;;;;;;5063952;28;20649;-92
2022/08/25 12:33:09;;;;;;;4.72;3.75;;;32.70;45.70;;;;;;5066615;28;20772;-91
2022/08/25 12:36:01;;;;;;;4.57;3.55;;;32.60;45.50;;;;;;5067219;28;20235;-91
2022/08/25 12:38:43;;;;;;;5.63;4.20;;;32.60;45.90;;;;;;5066314;28;20265;-91
2022/08/25 12:41:13;;;;;;;5.20;4.18;;;32.50;45.90;;;;;;5064481;28;20173;-91
2022/08/25 12:50:35;;;;;;;4.63;3.75;;;32.40;44.10;;;;;;5084516;28;20248;-89
2022/08/25 12:53:14;;;;;;;5.65;4.00;;;32.40;45.70;;;;;;5065379;28;20295;-89
2022/08/25 12:55:48;;;;;;;4.85;3.70;;;32.40;45.80;;;;;;5067446;28;20559;-89
2022/08/25 12:58:15;;;;;;;4.22;3.58;;;32.40;45.80;;;;;;5067782;28;20330;-90
2022/08/25 13:14:09;;;;;;;4.90;3.80;;;32.40;45.80;;;;;;5070907;28;20273;-89
2022/08/25 13:16:35;;;;;;;4.72;3.63;;;32.30;45.90;;;;;;5065890;28;20178;-90
2022/08/25 13:19:04;;;;;;;4.57;4.18;;;32.30;45.70;;;;;;5078538;28;20171;-89
2022/08/25 13:21:38;;;;;;;4.47;3.83;;;32.20;45.90;;;;;;5061337;28;20314;-89
2022/08/25 13:27:28;;;;;;;4.50;3.83;;;32.30;45.60;;;;;;5075598;28;20178;-89
2022/08/25 13:29:58;;;;;;;3.97;3.58;;;32.30;46.10;;;;;;5053182;28;20360;-89
2022/08/25 13:32:46;;;;;;;6.40;4.00;;;32.30;45.80;;;;;;5062583;28;20615;-90
2022/08/25 13:35:14;;;;;;;3.72;3.42;;;32.30;42.80;;;;;;5084982;28;20171;-89
2022/08/25 13:37:40;;;;;;;3.78;3.35;;;32.30;45.00;;;;;;5050867;28;20247;-89
2022/08/25 13:40:09;;;;;;;6.38;3.53;;;32.30;45.20;;;;;;5078459;28;20175;-91
2022/08/25 13:42:36;;;;;;;4.68;3.92;;;32.30;45.60;;;;;;5063512;28;20556;-91
2022/08/25 13:45:18;;;;;;;3.72;3.42;;;32.30;45.60;;;;;;5059874;28;20170;-90
2022/08/25 13:47:45;;;;;;;3.72;3.42;;;32.30;45.60;;;;;;5060793;28;20276;-90
2022/08/25 13:57:22;;;;;;;4.45;3.72;;;32.20;45.90;;;;;;4990161;28;20204;-91
2022/08/25 13:59:54;;;;;;;4.10;3.70;;;32.20;45.90;;;;;;4984550;28;20565;-91
2022/08/25 14:02:45;;;;;;;4.40;4.00;;;32.20;46.10;;;;;;5034750;28;20253;-91
2022/08/25 14:05:16;;;;;;;4.20;3.47;;;32.10;46.10;;;;;;5062817;28;20281;-90
2022/08/25 14:07:53;;;;;;;4.32;3.92;;;32.20;46.20;;;;;;5064568;28;20198;-91
2022/08/25 14:11:02;;;;;;;4.03;3.72;;;32.10;46.20;;;;;;5058045;28;20174;-90
2022/08/25 14:20:27;;;;;;;4.10;3.70;;;32.20;46.30;;;;;;5040707;28;20203;-91
2022/08/25 14:26:14;;;;;;;4.65;3.63;;;32.10;46.30;;;;;;5040433;28;20167;-91
2022/08/25 14:28:40;;;;;;;3.80;3.47;;;32.10;46.40;;;;;;5043015;28;20184;-89
2022/08/25 14:31:18;;;;;;;4.30;3.90;;;32.10;46.40;;;;;;5039229;28;20393;-89
2022/08/25 14:34:13;;;;;;;3.95;3.65;;;32.20;46.60;;;;;;5042066;28;20235;-89
2022/08/25 14:36:41;;;;;;;3.50;3.20;;;32.10;46.50;;;;;;5029605;28;20335;-89
2022/08/25 14:39:07;;;;;;;3.63;3.33;;;32.10;46.60;;;;;;5039065;28;20186;-90
2022/08/25 14:41:35;;;;;;;4.10;3.70;;;32.10;46.60;;;;;;5022365;28;20207;-90
2022/08/25 14:50:45;;;;;;;3.90;3.47;;;32.10;46.40;;;;;;5082542;28;20599;-89
2022/08/25 14:53:11;;;;;;;3.88;3.58;;;32.10;46.50;;;;;;5065490;28;20526;-89
2022/08/25 14:55:37;;;;;;;3.70;3.40;;;32.10;46.50;;;;;;5081828;28;20194;-89
2022/08/25 15:05:43;;;;;;;4.03;3.72;;;32.10;46.40;;;;;;5078893;28;20228;-90
2022/08/25 15:11:18;;;;;;;3.90;3.53;;;32.00;44.90;;;;;;5084593;28;20178;-91
2022/08/25 15:13:54;;;;;;;3.80;3.50;;;32.00;46.40;;;;;;5062693;28;20293;-88
2022/08/25 15:16:44;;;;;;;3.30;3.00;;;32.00;46.40;;;;;;5069532;28;20245;-89
2022/08/25 15:23:29;;;;;;;5.07;3.67;;;32.00;46.40;;;;;;5086668;28;20170;-89
2022/08/25 15:25:55;;;;;;;3.75;3.45;;;32.00;46.40;;;;;;5056712;28;20175;-89
2022/08/25 15:32:23;;;;;;;4.32;3.90;;;32.00;46.40;;;;;;5091541;28;20273;-89
2022/08/25 15:35:33;;;;;;;4.28;3.97;;;32.00;46.30;;;;;;5072654;28;20189;-89
2022/08/25 15:41:23;;;;;;;4.43;4.03;;;32.00;46.50;;;;;;5094433;28;20253;-91
2022/08/25 15:43:49;;;;;;;3.85;3.45;;;31.90;46.30;;;;;;5075386;28;20182;-91
2022/08/25 15:46:19;;;;;;;4.22;3.78;;;32.00;46.40;;;;;;5082508;28;20446;-91
2022/08/25 15:48:45;;;;;;;4.63;3.70;;;32.00;46.40;;;;;;5080626;28;20244;-91
2022/08/25 15:51:13;;;;;;;8.98;4.13;;;32.00;46.40;;;;;;5083938;28;20174;-91
2022/08/25 15:53:39;;;;;;;4.22;3.83;;;32.00;46.40;;;;;;5083222;28;20218;-91
2022/08/25 15:59:27;;;;;;;4.20;3.80;;;32.00;46.50;;;;;;5083674;28;20299;-91
2022/08/25 16:01:54;;;;;;;3.95;3.58;;;32.00;46.60;;;;;;5081785;28;20163;-91
2022/08/25 16:04:25;;;;;;;4.10;3.80;;;32.00;46.60;;;;;;5080302;28;20266;-91
2022/08/25 16:07:12;;;;;;;4.55;3.88;;;32.00;46.60;;;;;;5080242;28;20175;-91
2022/08/25 16:09:37;;;;;;;3.90;3.60;;;32.00;46.20;;;;;;5077805;28;20167;-90
2022/08/25 16:12:56;;;;;;;4.35;3.92;;;32.00;46.50;;;;;;5083394;28;20591;-91
2022/08/25 16:18:45;;;;;;;3.80;3.50;;;31.90;46.80;;;;;;5080275;28;20375;-90
2022/08/25 16:21:15;;;;;;;4.07;3.78;;;31.90;46.70;;;;;;5075189;28;20167;-90
2022/08/25 16:23:41;;;;;;;4.20;3.80;;;31.90;46.90;;;;;;5079102;28;20240;-90
2022/08/25 16:26:08;;;;;;;4.55;4.15;;;31.90;46.60;;;;;;5073850;28;20435;-90
2022/08/25 16:28:37;;;;;;;3.70;3.40;;;31.90;46.80;;;;;;5084102;28;20186;-90
2022/08/25 16:38:40;;;;;;;4.40;4.00;;;31.80;47.30;;;;;;5071988;28;20220;-90
2022/08/25 16:44:28;;;;;;;6.38;3.85;;;31.80;47.30;;;;;;5080044;28;20182;-92
2022/08/25 16:46:55;;;;;;;6.03;4.00;;;31.80;47.30;;;;;;5081494;28;20174;-92
2022/08/25 16:49:36;;;;;;;8.40;3.80;;;31.80;47.30;;;;;;5082815;28;20423;-91
2022/08/25 16:55:16;;;;;;;6.50;4.25;;;31.70;47.30;;;;;;5084551;28;20559;-91
2022/08/25 16:57:48;;;;;;;4.80;4.20;;;31.70;47.40;;;;;;5079821;28;20613;-92
2022/08/25 17:00:18;;;;;;;5.20;4.32;;;31.70;47.40;;;;;;5081144;28;20171;-92
2022/08/25 17:02:43;;;;;;;4.28;3.90;;;31.60;47.30;;;;;;5095897;28;20167;-91
2022/08/25 17:05:11;;;;;;;4.22;3.83;;;31.60;47.40;;;;;;5078578;28;20319;-92
2022/08/25 17:07:37;;;;;;;4.47;4.07;;;31.60;47.50;;;;;;5082233;28;20273;-92
2022/08/25 17:10:06;;;;;;;5.38;3.97;;;31.50;47.50;;;;;;5077389;28;20274;-91
2022/08/25 17:13:10;;;;;;;5.95;4.35;;;31.50;47.60;;;;;;5082756;28;20442;-91
2022/08/25 17:15:45;;;;;;;5.22;3.75;;;31.50;47.60;;;;;;5081109;28;20174;-90
2022/08/25 17:18:12;;;;;;;5.00;4.25;;;31.50;47.70;;;;;;5084496;28;20155;-90
2022/08/25 17:21:13;;;;;;;6.05;4.45;;;31.50;47.70;;;;;;5081462;28;20274;-90
2022/08/25 17:23:41;;;;;;;6.78;4.32;;;31.50;47.70;;;;;;5083388;28;20235;-90
2022/08/25 17:26:09;;;;;;;5.28;4.22;;;31.50;47.70;;;;;;5083685;28;20654;-90
2022/08/25 17:28:35;;;;;;;4.75;4.35;;;31.50;47.70;;;;;;5077097;28;20180;-90
2022/08/25 17:31:01;;;;;;;5.93;4.22;;;31.50;47.70;;;;;;5078354;28;20434;-90
2022/08/25 17:33:27;;;;;;;5.03;4.20;;;31.50;47.70;;;;;;5083479;28;20451;-90